sensor_id;sensor_type;location;lat;lon;timestamp;temperature;humidity
21834;DHT22;11079;51.092;3.458;2023-03-21T00:01:06;10.80;99.90
21834;DHT22;11079;51.092;3.458;2023-03-21T00:03:32;10.80;99.90
21834;DHT22;11079;51.092;3.458;2023-03-21T00:06:04;10.80;99.90
21834;DHT22;11079;51.092;3.458;2023-03-21T00:08:30;10.90;99.90
21834;DHT22;11079;51.092;3.458;2023-03-21T00:10:57;10.90;99.90
21834;DHT22;11079;51.092;3.458;2023-03-21T00:13:24;11.00;99.90
21834;DHT22;11079;51.092;3.458;2023-03-21T00:15:51;10.90;99.90
21834;DHT22;11079;51.092;3.458;2023-03-21T00:18:20;10.90;99.90
21834;DHT22;11079;51.092;3.458;2023-03-21T00:21:01;10.90;99.90
21834;DHT22;11079;51.092;3.458;2023-03-21T00:23:28;11.00;99.90
21834;DHT22;11079;51.092;3.458;2023-03-21T00:25:55;11.00;99.90
21834;DHT22;11079;51.092;3.458;2023-03-21T00:28:21;10.80;99.90
21834;DHT22;11079;51.092;3.458;2023-03-21T00:30:47;10.80;99.90
21834;DHT22;11079;51.092;3.458;2023-03-21T00:33:12;10.80;99.90
21834;DHT22;11079;51.092;3.458;2023-03-21T00:35:40;10.70;99.90
21834;DHT22;11079;51.092;3.458;2023-03-21T00:38:13;10.70;99.90
21834;DHT22;11079;51.092;3.458;2023-03-21T00:40:39;10.70;99.90
21834;DHT22;11079;51.092;3.458;2023-03-21T00:43:05;10.70;99.90
21834;DHT22;11079;51.092;3.458;2023-03-21T00:45:30;10.70;99.90
21834;DHT22;11079;51.092;3.458;2023-03-21T00:47:57;10.60;99.90
21834;DHT22;11079;51.092;3.458;2023-03-21T00:50:23;10.60;99.90
21834;DHT22;11079;51.092;3.458;2023-03-21T00:52:48;10.50;99.90
21834;DHT22;11079;51.092;3.458;2023-03-21T00:55:17;10.60;99.90
21834;DHT22;11079;51.092;3.458;2023-03-21T00:57:43;10.70;99.90
21834;DHT22;11079;51.092;3.458;2023-03-21T01:00:11;10.70;99.90
21834;DHT22;11079;51.092;3.458;2023-03-21T01:02:37;10.70;99.90
21834;DHT22;11079;51.092;3.458;2023-03-21T01:05:08;10.60;99.90
21834;DHT22;11079;51.092;3.458;2023-03-21T01:07:34;10.60;99.90
21834;DHT22;11079;51.092;3.458;2023-03-21T01:10:00;10.70;99.90
21834;DHT22;11079;51.092;3.458;2023-03-21T01:12:26;10.90;99.90
21834;DHT22;11079;51.092;3.458;2023-03-21T01:14:52;10.90;99.90
21834;DHT22;11079;51.092;3.458;2023-03-21T01:17:17;11.00;99.90
21834;DHT22;11079;51.092;3.458;2023-03-21T01:19:43;11.00;99.90
21834;DHT22;11079;51.092;3.458;2023-03-21T01:22:08;11.00;99.90
21834;DHT22;11079;51.092;3.458;2023-03-21T01:24:36;11.00;99.90
21834;DHT22;11079;51.092;3.458;2023-03-21T01:27:02;11.00;99.90
21834;DHT22;11079;51.092;3.458;2023-03-21T01:29:28;10.90;99.90
21834;DHT22;11079;51.092;3.458;2023-03-21T01:31:53;11.00;99.90
21834;DHT22;11079;51.092;3.458;2023-03-21T01:34:20;11.20;99.90
21834;DHT22;11079;51.092;3.458;2023-03-21T01:36:46;11.20;99.90
21834;DHT22;11079;51.092;3.458;2023-03-21T01:39:11;11.10;99.90
21834;DHT22;11079;51.092;3.458;2023-03-21T01:41:40;11.00;99.90
21834;DHT22;11079;51.092;3.458;2023-03-21T01:44:09;11.00;99.90
21834;DHT22;11079;51.092;3.458;2023-03-21T01:46:44;10.90;99.90
21834;DHT22;11079;51.092;3.458;2023-03-21T01:49:18;10.90;99.90
21834;DHT22;11079;51.092;3.458;2023-03-21T01:51:57;10.90;99.90
21834;DHT22;11079;51.092;3.458;2023-03-21T01:54:28;10.90;99.90
21834;DHT22;11079;51.092;3.458;2023-03-21T01:56:57;10.80;99.90
21834;DHT22;11079;51.092;3.458;2023-03-21T02:02:03;10.80;99.90
21834;DHT22;11079;51.092;3.458;2023-03-21T02:04:33;10.90;99.90
21834;DHT22;11079;51.092;3.458;2023-03-21T02:07:07;10.90;99.90
21834;DHT22;11079;51.092;3.458;2023-03-21T02:09:36;11.00;99.90
21834;DHT22;11079;51.092;3.458;2023-03-21T02:12:02;11.10;99.90
21834;DHT22;11079;51.092;3.458;2023-03-21T02:14:31;10.90;99.90
21834;DHT22;11079;51.092;3.458;2023-03-21T02:17:27;10.90;99.90
21834;DHT22;11079;51.092;3.458;2023-03-21T02:25:40;11.00;99.90
21834;DHT22;11079;51.092;3.458;2023-03-21T02:39:31;10.90;99.90
21834;DHT22;11079;51.092;3.458;2023-03-21T02:42:14;10.90;99.90
21834;DHT22;11079;51.092;3.458;2023-03-21T02:47:25;11.10;99.90
21834;DHT22;11079;51.092;3.458;2023-03-21T02:50:04;11.10;99.90
21834;DHT22;11079;51.092;3.458;2023-03-21T02:52:34;11.10;99.90
21834;DHT22;11079;51.092;3.458;2023-03-21T02:55:02;11.10;99.90
21834;DHT22;11079;51.092;3.458;2023-03-21T02:57:30;11.20;99.90
21834;DHT22;11079;51.092;3.458;2023-03-21T02:59:56;11.20;99.90
21834;DHT22;11079;51.092;3.458;2023-03-21T03:02:26;11.20;99.90
21834;DHT22;11079;51.092;3.458;2023-03-21T03:04:52;11.00;99.90
21834;DHT22;11079;51.092;3.458;2023-03-21T03:07:49;10.80;99.90
21834;DHT22;11079;51.092;3.458;2023-03-21T03:13:30;10.90;99.90
21834;DHT22;11079;51.092;3.458;2023-03-21T03:16:16;10.90;99.90
21834;DHT22;11079;51.092;3.458;2023-03-21T03:26:38;10.80;99.90
21834;DHT22;11079;51.092;3.458;2023-03-21T03:29:07;10.70;99.90
21834;DHT22;11079;51.092;3.458;2023-03-21T03:31:45;10.60;99.90
21834;DHT22;11079;51.092;3.458;2023-03-21T03:34:15;10.60;99.90
21834;DHT22;11079;51.092;3.458;2023-03-21T03:36:47;10.50;99.90
21834;DHT22;11079;51.092;3.458;2023-03-21T03:39:17;10.50;99.90
21834;DHT22;11079;51.092;3.458;2023-03-21T03:42:05;10.50;99.90
21834;DHT22;11079;51.092;3.458;2023-03-21T03:44:34;10.50;99.90
21834;DHT22;11079;51.092;3.458;2023-03-21T03:47:16;10.60;99.90
21834;DHT22;11079;51.092;3.458;2023-03-21T03:49:55;10.80;99.90
21834;DHT22;11079;51.092;3.458;2023-03-21T03:52:28;10.70;99.90
21834;DHT22;11079;51.092;3.458;2023-03-21T03:54:56;10.60;99.90
21834;DHT22;11079;51.092;3.458;2023-03-21T03:57:24;10.70;99.90
21834;DHT22;11079;51.092;3.458;2023-03-21T03:59:50;10.80;99.90
21834;DHT22;11079;51.092;3.458;2023-03-21T04:02:17;10.70;99.90
21834;DHT22;11079;51.092;3.458;2023-03-21T04:04:45;10.70;99.90
21834;DHT22;11079;51.092;3.458;2023-03-21T04:07:12;10.70;99.90
21834;DHT22;11079;51.092;3.458;2023-03-21T04:09:38;10.80;99.90
21834;DHT22;11079;51.092;3.458;2023-03-21T04:12:03;10.70;99.90
21834;DHT22;11079;51.092;3.458;2023-03-21T04:14:30;10.80;99.90
21834;DHT22;11079;51.092;3.458;2023-03-21T04:16:56;10.80;99.90
21834;DHT22;11079;51.092;3.458;2023-03-21T04:19:22;10.80;99.90
21834;DHT22;11079;51.092;3.458;2023-03-21T04:21:47;10.80;99.90
21834;DHT22;11079;51.092;3.458;2023-03-21T04:24:13;10.80;99.90
21834;DHT22;11079;51.092;3.458;2023-03-21T04:26:39;10.60;99.90
21834;DHT22;11079;51.092;3.458;2023-03-21T04:29:05;10.50;99.90
21834;DHT22;11079;51.092;3.458;2023-03-21T04:31:32;10.60;99.90
21834;DHT22;11079;51.092;3.458;2023-03-21T04:34:03;10.50;99.90
21834;DHT22;11079;51.092;3.458;2023-03-21T04:36:31;10.50;99.90
21834;DHT22;11079;51.092;3.458;2023-03-21T04:39:08;10.50;99.90
21834;DHT22;11079;51.092;3.458;2023-03-21T04:41:42;10.40;99.90
21834;DHT22;11079;51.092;3.458;2023-03-21T04:44:09;10.40;99.90
21834;DHT22;11079;51.092;3.458;2023-03-21T04:46:37;10.30;99.90
21834;DHT22;11079;51.092;3.458;2023-03-21T04:49:03;10.30;99.90
21834;DHT22;11079;51.092;3.458;2023-03-21T04:51:29;10.20;99.90
21834;DHT22;11079;51.092;3.458;2023-03-21T04:53:55;10.30;99.90
21834;DHT22;11079;51.092;3.458;2023-03-21T04:56:28;10.30;99.90
21834;DHT22;11079;51.092;3.458;2023-03-21T04:59:05;10.20;99.90
21834;DHT22;11079;51.092;3.458;2023-03-21T05:01:31;10.10;99.90
21834;DHT22;11079;51.092;3.458;2023-03-21T05:03:58;10.10;99.90
21834;DHT22;11079;51.092;3.458;2023-03-21T05:06:24;10.10;99.90
21834;DHT22;11079;51.092;3.458;2023-03-21T05:08:50;10.10;99.90
21834;DHT22;11079;51.092;3.458;2023-03-21T05:11:16;10.10;99.90
21834;DHT22;11079;51.092;3.458;2023-03-21T05:13:42;10.00;99.90
21834;DHT22;11079;51.092;3.458;2023-03-21T05:16:08;10.20;99.90
21834;DHT22;11079;51.092;3.458;2023-03-21T05:18:34;10.20;99.90
21834;DHT22;11079;51.092;3.458;2023-03-21T05:21:03;10.20;99.90
21834;DHT22;11079;51.092;3.458;2023-03-21T05:23:32;10.20;99.90
21834;DHT22;11079;51.092;3.458;2023-03-21T05:26:06;10.20;99.90
21834;DHT22;11079;51.092;3.458;2023-03-21T05:28:33;10.30;99.90
21834;DHT22;11079;51.092;3.458;2023-03-21T05:31:02;10.30;99.90
21834;DHT22;11079;51.092;3.458;2023-03-21T05:33:31;10.10;99.90
21834;DHT22;11079;51.092;3.458;2023-03-21T05:35:57;10.10;99.90
21834;DHT22;11079;51.092;3.458;2023-03-21T05:38:24;10.20;99.90
21834;DHT22;11079;51.092;3.458;2023-03-21T05:40:50;10.20;99.90
21834;DHT22;11079;51.092;3.458;2023-03-21T05:43:16;10.20;99.90
21834;DHT22;11079;51.092;3.458;2023-03-21T05:45:42;10.20;99.90
21834;DHT22;11079;51.092;3.458;2023-03-21T05:48:08;10.20;99.90
21834;DHT22;11079;51.092;3.458;2023-03-21T05:50:34;10.30;99.90
21834;DHT22;11079;51.092;3.458;2023-03-21T05:53:00;10.30;99.90
21834;DHT22;11079;51.092;3.458;2023-03-21T05:55:25;10.20;99.90
21834;DHT22;11079;51.092;3.458;2023-03-21T05:57:51;10.10;99.90
21834;DHT22;11079;51.092;3.458;2023-03-21T06:00:18;10.00;99.90
21834;DHT22;11079;51.092;3.458;2023-03-21T06:02:46;10.10;99.90
21834;DHT22;11079;51.092;3.458;2023-03-21T06:05:12;10.10;99.90
21834;DHT22;11079;51.092;3.458;2023-03-21T06:07:37;10.20;99.90
21834;DHT22;11079;51.092;3.458;2023-03-21T06:10:04;10.20;99.90
21834;DHT22;11079;51.092;3.458;2023-03-21T06:12:31;10.30;99.90
21834;DHT22;11079;51.092;3.458;2023-03-21T06:14:56;10.20;99.90
21834;DHT22;11079;51.092;3.458;2023-03-21T06:17:22;10.20;99.90
21834;DHT22;11079;51.092;3.458;2023-03-21T06:19:48;10.10;99.90
21834;DHT22;11079;51.092;3.458;2023-03-21T06:22:13;10.10;99.90
21834;DHT22;11079;51.092;3.458;2023-03-21T06:24:39;10.20;99.90
21834;DHT22;11079;51.092;3.458;2023-03-21T06:27:05;10.30;99.90
21834;DHT22;11079;51.092;3.458;2023-03-21T06:29:31;10.30;99.90
21834;DHT22;11079;51.092;3.458;2023-03-21T06:31:56;10.30;99.90
21834;DHT22;11079;51.092;3.458;2023-03-21T06:34:22;10.40;99.90
21834;DHT22;11079;51.092;3.458;2023-03-21T06:36:48;10.40;99.90
21834;DHT22;11079;51.092;3.458;2023-03-21T06:39:13;10.40;99.90
21834;DHT22;11079;51.092;3.458;2023-03-21T06:41:40;10.40;99.90
21834;DHT22;11079;51.092;3.458;2023-03-21T06:44:06;10.30;99.90
21834;DHT22;11079;51.092;3.458;2023-03-21T06:46:32;10.30;99.90
21834;DHT22;11079;51.092;3.458;2023-03-21T06:48:57;10.40;99.90
21834;DHT22;11079;51.092;3.458;2023-03-21T06:51:23;10.30;99.90
21834;DHT22;11079;51.092;3.458;2023-03-21T06:53:49;10.40;99.90
21834;DHT22;11079;51.092;3.458;2023-03-21T06:56:15;10.40;99.90
21834;DHT22;11079;51.092;3.458;2023-03-21T06:58:44;10.30;99.90
21834;DHT22;11079;51.092;3.458;2023-03-21T07:01:09;10.60;99.90
21834;DHT22;11079;51.092;3.458;2023-03-21T07:03:35;10.60;99.90
21834;DHT22;11079;51.092;3.458;2023-03-21T07:06:09;10.70;99.90
21834;DHT22;11079;51.092;3.458;2023-03-21T07:08:37;10.70;99.90
21834;DHT22;11079;51.092;3.458;2023-03-21T07:11:03;10.70;99.90
21834;DHT22;11079;51.092;3.458;2023-03-21T07:13:29;10.80;99.90
21834;DHT22;11079;51.092;3.458;2023-03-21T07:15:55;10.90;99.90
21834;DHT22;11079;51.092;3.458;2023-03-21T07:18:21;11.00;99.90
21834;DHT22;11079;51.092;3.458;2023-03-21T07:20:47;11.00;99.90
21834;DHT22;11079;51.092;3.458;2023-03-21T07:23:18;11.20;99.90
21834;DHT22;11079;51.092;3.458;2023-03-21T07:25:45;11.30;99.90
21834;DHT22;11079;51.092;3.458;2023-03-21T07:28:11;11.50;99.90
21834;DHT22;11079;51.092;3.458;2023-03-21T07:30:37;11.40;99.90
21834;DHT22;11079;51.092;3.458;2023-03-21T07:33:02;11.40;99.90
21834;DHT22;11079;51.092;3.458;2023-03-21T07:35:28;11.50;99.90
21834;DHT22;11079;51.092;3.458;2023-03-21T07:37:54;11.50;99.90
21834;DHT22;11079;51.092;3.458;2023-03-21T07:40:19;11.60;99.90
21834;DHT22;11079;51.092;3.458;2023-03-21T07:42:47;11.60;99.90
21834;DHT22;11079;51.092;3.458;2023-03-21T07:45:13;11.90;99.90
21834;DHT22;11079;51.092;3.458;2023-03-21T07:47:46;12.00;99.90
21834;DHT22;11079;51.092;3.458;2023-03-21T07:50:13;11.80;99.90
21834;DHT22;11079;51.092;3.458;2023-03-21T07:52:38;11.80;99.90
21834;DHT22;11079;51.092;3.458;2023-03-21T07:55:04;11.90;99.90
21834;DHT22;11079;51.092;3.458;2023-03-21T07:57:31;11.90;99.90
21834;DHT22;11079;51.092;3.458;2023-03-21T07:59:56;11.90;99.90
21834;DHT22;11079;51.092;3.458;2023-03-21T08:02:22;12.00;99.90
21834;DHT22;11079;51.092;3.458;2023-03-21T08:04:47;12.20;99.90
21834;DHT22;11079;51.092;3.458;2023-03-21T08:07:13;12.30;99.90
21834;DHT22;11079;51.092;3.458;2023-03-21T08:09:39;12.60;99.90
21834;DHT22;11079;51.092;3.458;2023-03-21T08:12:05;12.80;99.90
21834;DHT22;11079;51.092;3.458;2023-03-21T08:14:33;12.90;99.90
21834;DHT22;11079;51.092;3.458;2023-03-21T08:16:59;13.00;99.90
21834;DHT22;11079;51.092;3.458;2023-03-21T08:19:25;13.00;99.90
21834;DHT22;11079;51.092;3.458;2023-03-21T08:21:51;12.70;99.90
21834;DHT22;11079;51.092;3.458;2023-03-21T08:24:17;12.70;99.90
21834;DHT22;11079;51.092;3.458;2023-03-21T08:26:43;12.70;99.90
21834;DHT22;11079;51.092;3.458;2023-03-21T08:29:11;12.60;99.90
21834;DHT22;11079;51.092;3.458;2023-03-21T08:31:38;12.70;99.90
21834;DHT22;11079;51.092;3.458;2023-03-21T08:34:03;12.60;99.90
21834;DHT22;11079;51.092;3.458;2023-03-21T08:36:29;12.50;99.90
21834;DHT22;11079;51.092;3.458;2023-03-21T08:38:55;12.40;99.90
21834;DHT22;11079;51.092;3.458;2023-03-21T08:41:32;12.50;99.90
21834;DHT22;11079;51.092;3.458;2023-03-21T08:43:58;12.40;99.90
21834;DHT22;11079;51.092;3.458;2023-03-21T08:46:24;12.40;99.90
21834;DHT22;11079;51.092;3.458;2023-03-21T08:48:50;12.40;99.90
21834;DHT22;11079;51.092;3.458;2023-03-21T08:51:15;12.40;99.90
21834;DHT22;11079;51.092;3.458;2023-03-21T08:53:41;12.50;99.90
21834;DHT22;11079;51.092;3.458;2023-03-21T08:56:09;12.60;99.90
21834;DHT22;11079;51.092;3.458;2023-03-21T08:58:35;12.60;99.90
21834;DHT22;11079;51.092;3.458;2023-03-21T09:01:01;12.60;99.90
21834;DHT22;11079;51.092;3.458;2023-03-21T09:03:27;12.60;99.90
21834;DHT22;11079;51.092;3.458;2023-03-21T09:05:55;12.50;99.90
21834;DHT22;11079;51.092;3.458;2023-03-21T09:08:21;12.30;99.90
21834;DHT22;11079;51.092;3.458;2023-03-21T09:10:51;12.40;99.90
21834;DHT22;11079;51.092;3.458;2023-03-21T09:13:17;12.50;99.90
21834;DHT22;11079;51.092;3.458;2023-03-21T09:15:42;12.60;99.90
21834;DHT22;11079;51.092;3.458;2023-03-21T09:18:09;12.80;99.90
21834;DHT22;11079;51.092;3.458;2023-03-21T09:20:41;13.10;99.90
21834;DHT22;11079;51.092;3.458;2023-03-21T09:23:08;13.10;99.90
21834;DHT22;11079;51.092;3.458;2023-03-21T09:25:35;13.00;99.90
21834;DHT22;11079;51.092;3.458;2023-03-21T09:28:01;13.10;99.90
21834;DHT22;11079;51.092;3.458;2023-03-21T09:30:29;13.20;99.90
21834;DHT22;11079;51.092;3.458;2023-03-21T09:32:55;13.30;99.90
21834;DHT22;11079;51.092;3.458;2023-03-21T09:35:23;13.40;99.90
21834;DHT22;11079;51.092;3.458;2023-03-21T09:37:49;13.40;99.90
21834;DHT22;11079;51.092;3.458;2023-03-21T09:40:35;13.50;99.90
21834;DHT22;11079;51.092;3.458;2023-03-21T09:46:07;13.60;99.90
21834;DHT22;11079;51.092;3.458;2023-03-21T09:48:56;13.90;99.90
21834;DHT22;11079;51.092;3.458;2023-03-21T09:51:31;13.90;99.90
21834;DHT22;11079;51.092;3.458;2023-03-21T09:54:04;13.90;99.90
21834;DHT22;11079;51.092;3.458;2023-03-21T09:56:32;14.10;99.90
21834;DHT22;11079;51.092;3.458;2023-03-21T09:58:59;14.40;99.90
21834;DHT22;11079;51.092;3.458;2023-03-21T10:01:28;14.10;99.90
21834;DHT22;11079;51.092;3.458;2023-03-21T10:04:03;14.20;99.90
21834;DHT22;11079;51.092;3.458;2023-03-21T10:06:30;14.10;99.90
21834;DHT22;11079;51.092;3.458;2023-03-21T10:11:27;14.40;99.90
21834;DHT22;11079;51.092;3.458;2023-03-21T10:14:05;14.60;99.90
21834;DHT22;11079;51.092;3.458;2023-03-21T10:16:36;15.10;99.90
21834;DHT22;11079;51.092;3.458;2023-03-21T10:19:18;15.60;99.90
21834;DHT22;11079;51.092;3.458;2023-03-21T10:21:49;16.00;99.90
21834;DHT22;11079;51.092;3.458;2023-03-21T10:24:21;16.70;99.90
21834;DHT22;11079;51.092;3.458;2023-03-21T10:26:49;16.40;99.90
21834;DHT22;11079;51.092;3.458;2023-03-21T10:29:16;16.60;99.90
21834;DHT22;11079;51.092;3.458;2023-03-21T10:31:44;17.30;99.90
21834;DHT22;11079;51.092;3.458;2023-03-21T10:34:34;17.60;99.90
21834;DHT22;11079;51.092;3.458;2023-03-21T10:37:01;17.50;99.90
21834;DHT22;11079;51.092;3.458;2023-03-21T10:39:39;16.80;99.90
21834;DHT22;11079;51.092;3.458;2023-03-21T10:42:06;16.50;99.90
21834;DHT22;11079;51.092;3.458;2023-03-21T10:44:36;16.40;99.90
21834;DHT22;11079;51.092;3.458;2023-03-21T10:47:07;16.10;99.90
21834;DHT22;11079;51.092;3.458;2023-03-21T10:49:34;15.60;99.90
21834;DHT22;11079;51.092;3.458;2023-03-21T10:52:04;15.30;99.90
21834;DHT22;11079;51.092;3.458;2023-03-21T10:54:32;14.80;99.90
21834;DHT22;11079;51.092;3.458;2023-03-21T10:57:10;14.60;99.90
21834;DHT22;11079;51.092;3.458;2023-03-21T10:59:57;15.10;99.90
21834;DHT22;11079;51.092;3.458;2023-03-21T11:02:33;15.70;99.90
21834;DHT22;11079;51.092;3.458;2023-03-21T11:05:15;16.00;99.90
21834;DHT22;11079;51.092;3.458;2023-03-21T11:07:42;16.10;99.90
21834;DHT22;11079;51.092;3.458;2023-03-21T11:10:14;15.80;99.90
21834;DHT22;11079;51.092;3.458;2023-03-21T11:12:47;15.60;99.90
21834;DHT22;11079;51.092;3.458;2023-03-21T11:18:24;15.60;99.90
21834;DHT22;11079;51.092;3.458;2023-03-21T11:20:55;15.60;99.90
21834;DHT22;11079;51.092;3.458;2023-03-21T11:23:26;15.30;99.90
21834;DHT22;11079;51.092;3.458;2023-03-21T11:25:53;15.10;99.90
21834;DHT22;11079;51.092;3.458;2023-03-21T11:28:21;14.70;99.90
21834;DHT22;11079;51.092;3.458;2023-03-21T11:30:56;15.10;99.90
21834;DHT22;11079;51.092;3.458;2023-03-21T11:33:26;15.20;99.90
21834;DHT22;11079;51.092;3.458;2023-03-21T11:36:04;15.30;99.90
21834;DHT22;11079;51.092;3.458;2023-03-21T11:38:38;15.90;99.90
21834;DHT22;11079;51.092;3.458;2023-03-21T11:41:05;16.60;99.90
21834;DHT22;11079;51.092;3.458;2023-03-21T11:43:38;16.20;99.90
21834;DHT22;11079;51.092;3.458;2023-03-21T11:46:05;15.90;99.90
21834;DHT22;11079;51.092;3.458;2023-03-21T11:48:39;15.60;99.90
21834;DHT22;11079;51.092;3.458;2023-03-21T11:56:50;14.90;99.90
21834;DHT22;11079;51.092;3.458;2023-03-21T12:07:11;14.50;99.90
21834;DHT22;11079;51.092;3.458;2023-03-21T12:12:36;14.40;99.90
21834;DHT22;11079;51.092;3.458;2023-03-21T12:15:08;14.40;99.90
21834;DHT22;11079;51.092;3.458;2023-03-21T12:18:15;14.40;99.90
21834;DHT22;11079;51.092;3.458;2023-03-21T12:20:51;14.70;99.90
21834;DHT22;11079;51.092;3.458;2023-03-21T12:26:27;14.60;99.90
21834;DHT22;11079;51.092;3.458;2023-03-21T12:29:31;14.60;99.90
21834;DHT22;11079;51.092;3.458;2023-03-21T12:32:03;14.50;99.90
21834;DHT22;11079;51.092;3.458;2023-03-21T12:37:37;14.20;99.90
21834;DHT22;11079;51.092;3.458;2023-03-21T12:43:22;13.80;99.90
21834;DHT22;11079;51.092;3.458;2023-03-21T12:45:54;13.90;99.90
21834;DHT22;11079;51.092;3.458;2023-03-21T12:51:10;13.90;99.90
21834;DHT22;11079;51.092;3.458;2023-03-21T12:56:24;13.70;99.90
21834;DHT22;11079;51.092;3.458;2023-03-21T12:59:07;13.80;99.90
21834;DHT22;11079;51.092;3.458;2023-03-21T13:01:40;13.80;99.90
21834;DHT22;11079;51.092;3.458;2023-03-21T13:06:59;13.50;99.90
21834;DHT22;11079;51.092;3.458;2023-03-21T13:09:38;13.50;99.90
21834;DHT22;11079;51.092;3.458;2023-03-21T13:17:53;13.60;99.90
21834;DHT22;11079;51.092;3.458;2023-03-21T13:20:25;13.70;99.90
21834;DHT22;11079;51.092;3.458;2023-03-21T13:22:53;13.60;99.90
21834;DHT22;11079;51.092;3.458;2023-03-21T13:25:23;13.50;99.90
21834;DHT22;11079;51.092;3.458;2023-03-21T13:27:54;13.40;99.90
21834;DHT22;11079;51.092;3.458;2023-03-21T13:30:27;13.40;99.90
21834;DHT22;11079;51.092;3.458;2023-03-21T13:33:13;13.20;99.90
21834;DHT22;11079;51.092;3.458;2023-03-21T13:35:41;13.00;99.90
21834;DHT22;11079;51.092;3.458;2023-03-21T13:43:33;13.90;99.90
21834;DHT22;11079;51.092;3.458;2023-03-21T13:49:17;13.90;99.90
21834;DHT22;11079;51.092;3.458;2023-03-21T13:51:54;13.80;99.90
21834;DHT22;11079;51.092;3.458;2023-03-21T13:57:05;13.80;99.90
21834;DHT22;11079;51.092;3.458;2023-03-21T13:59:35;14.00;99.90
21834;DHT22;11079;51.092;3.458;2023-03-21T14:05:06;14.10;99.90
21834;DHT22;11079;51.092;3.458;2023-03-21T14:07:40;14.00;99.90
21834;DHT22;11079;51.092;3.458;2023-03-21T14:10:32;14.20;99.90
21834;DHT22;11079;51.092;3.458;2023-03-21T14:12:59;14.40;99.90
21834;DHT22;11079;51.092;3.458;2023-03-21T14:15:39;14.50;99.90
21834;DHT22;11079;51.092;3.458;2023-03-21T14:18:06;14.60;99.90
21834;DHT22;11079;51.092;3.458;2023-03-21T14:20:34;14.70;99.90
21834;DHT22;11079;51.092;3.458;2023-03-21T14:23:04;14.60;99.90
21834;DHT22;11079;51.092;3.458;2023-03-21T14:25:36;14.60;99.90
21834;DHT22;11079;51.092;3.458;2023-03-21T14:28:05;14.80;99.90
21834;DHT22;11079;51.092;3.458;2023-03-21T14:30:37;14.90;99.90
21834;DHT22;11079;51.092;3.458;2023-03-21T14:33:15;14.70;99.90
21834;DHT22;11079;51.092;3.458;2023-03-21T14:35:45;14.90;99.90
21834;DHT22;11079;51.092;3.458;2023-03-21T14:38:22;15.30;99.90
21834;DHT22;11079;51.092;3.458;2023-03-21T14:40:52;15.50;99.90
21834;DHT22;11079;51.092;3.458;2023-03-21T14:43:20;15.50;99.90
21834;DHT22;11079;51.092;3.458;2023-03-21T14:45:48;15.50;99.90
21834;DHT22;11079;51.092;3.458;2023-03-21T14:48:16;15.40;99.90
21834;DHT22;11079;51.092;3.458;2023-03-21T14:50:45;15.20;99.90
21834;DHT22;11079;51.092;3.458;2023-03-21T14:56:17;14.60;99.90
21834;DHT22;11079;51.092;3.458;2023-03-21T14:58:45;14.50;99.90
21834;DHT22;11079;51.092;3.458;2023-03-21T15:01:28;14.70;99.90
21834;DHT22;11079;51.092;3.458;2023-03-21T15:03:54;15.40;99.90
21834;DHT22;11079;51.092;3.458;2023-03-21T15:06:20;16.20;99.90
21834;DHT22;11079;51.092;3.458;2023-03-21T15:08:56;16.80;99.90
21834;DHT22;11079;51.092;3.458;2023-03-21T15:11:36;16.70;99.90
21834;DHT22;11079;51.092;3.458;2023-03-21T15:14:06;17.00;99.90
21834;DHT22;11079;51.092;3.458;2023-03-21T15:16:32;17.10;99.90
21834;DHT22;11079;51.092;3.458;2023-03-21T15:18:59;16.80;99.90
21834;DHT22;11079;51.092;3.458;2023-03-21T15:21:34;16.60;99.90
21834;DHT22;11079;51.092;3.458;2023-03-21T15:24:08;16.10;99.90
21834;DHT22;11079;51.092;3.458;2023-03-21T15:26:38;16.00;99.90
21834;DHT22;11079;51.092;3.458;2023-03-21T15:29:05;16.00;99.90
21834;DHT22;11079;51.092;3.458;2023-03-21T15:31:35;16.00;99.90
21834;DHT22;11079;51.092;3.458;2023-03-21T15:34:03;15.90;99.90
21834;DHT22;11079;51.092;3.458;2023-03-21T15:36:35;15.90;99.90
21834;DHT22;11079;51.092;3.458;2023-03-21T15:39:11;15.90;99.90
21834;DHT22;11079;51.092;3.458;2023-03-21T15:41:37;15.60;99.90
21834;DHT22;11079;51.092;3.458;2023-03-21T15:44:11;15.20;99.90
21834;DHT22;11079;51.092;3.458;2023-03-21T15:46:43;15.00;99.90
21834;DHT22;11079;51.092;3.458;2023-03-21T15:51:50;14.90;99.90
21834;DHT22;11079;51.092;3.458;2023-03-21T15:56:55;14.90;99.90
21834;DHT22;11079;51.092;3.458;2023-03-21T15:59:24;14.80;99.90
21834;DHT22;11079;51.092;3.458;2023-03-21T16:01:51;14.80;99.90
21834;DHT22;11079;51.092;3.458;2023-03-21T16:04:17;14.80;99.90
21834;DHT22;11079;51.092;3.458;2023-03-21T16:06:57;14.80;99.90
21834;DHT22;11079;51.092;3.458;2023-03-21T16:09:23;14.90;99.90
21834;DHT22;11079;51.092;3.458;2023-03-21T16:11:57;15.00;99.90
21834;DHT22;11079;51.092;3.458;2023-03-21T16:14:24;15.10;99.90
21834;DHT22;11079;51.092;3.458;2023-03-21T16:16:54;15.10;99.90
21834;DHT22;11079;51.092;3.458;2023-03-21T16:19:20;14.90;99.90
21834;DHT22;11079;51.092;3.458;2023-03-21T16:21:49;15.00;99.90
21834;DHT22;11079;51.092;3.458;2023-03-21T16:24:14;14.90;99.90
21834;DHT22;11079;51.092;3.458;2023-03-21T16:26:44;14.90;99.90
21834;DHT22;11079;51.092;3.458;2023-03-21T16:29:15;14.80;99.90
21834;DHT22;11079;51.092;3.458;2023-03-21T16:31:42;14.60;99.90
21834;DHT22;11079;51.092;3.458;2023-03-21T16:34:07;14.40;99.90
21834;DHT22;11079;51.092;3.458;2023-03-21T16:36:36;14.20;99.90
21834;DHT22;11079;51.092;3.458;2023-03-21T16:39:23;13.80;99.90
21834;DHT22;11079;51.092;3.458;2023-03-21T16:41:50;13.50;99.90
21834;DHT22;11079;51.092;3.458;2023-03-21T16:44:17;13.40;99.90
21834;DHT22;11079;51.092;3.458;2023-03-21T16:46:43;13.30;99.90
21834;DHT22;11079;51.092;3.458;2023-03-21T16:49:22;13.20;99.90
21834;DHT22;11079;51.092;3.458;2023-03-21T16:51:49;13.40;99.90
21834;DHT22;11079;51.092;3.458;2023-03-21T16:54:15;13.40;99.90
21834;DHT22;11079;51.092;3.458;2023-03-21T16:56:54;13.60;99.90
21834;DHT22;11079;51.092;3.458;2023-03-21T16:59:21;13.70;99.90
21834;DHT22;11079;51.092;3.458;2023-03-21T17:01:46;13.60;99.90
21834;DHT22;11079;51.092;3.458;2023-03-21T17:04:14;13.60;99.90
21834;DHT22;11079;51.092;3.458;2023-03-21T17:06:47;13.70;99.90
21834;DHT22;11079;51.092;3.458;2023-03-21T17:09:14;13.70;99.90
21834;DHT22;11079;51.092;3.458;2023-03-21T17:11:40;13.70;99.90
21834;DHT22;11079;51.092;3.458;2023-03-21T17:14:10;13.60;99.90
21834;DHT22;11079;51.092;3.458;2023-03-21T17:16:37;13.60;99.90
21834;DHT22;11079;51.092;3.458;2023-03-21T17:19:16;13.60;99.90
21834;DHT22;11079;51.092;3.458;2023-03-21T17:21:43;13.50;99.90
21834;DHT22;11079;51.092;3.458;2023-03-21T17:24:08;13.50;99.90
21834;DHT22;11079;51.092;3.458;2023-03-21T17:26:34;13.60;99.90
21834;DHT22;11079;51.092;3.458;2023-03-21T17:29:01;13.50;99.90